sensor_id;sensor_type;location;lat;lon;timestamp;P1;durP1;ratioP1;P2;durP2;ratioP2
71648;SDS011;59492;45.638;11.714;2022-10-18T00:01:33;14.70;;;13.20;;
71648;SDS011;59492;45.638;11.714;2022-10-18T00:03:59;14.70;;;13.20;;
71648;SDS011;59492;45.638;11.714;2022-10-18T00:06:24;14.70;;;13.10;;
71648;SDS011;59492;45.638;11.714;2022-10-18T00:08:50;14.70;;;13.10;;
71648;SDS011;59492;45.638;11.714;2022-10-18T00:11:15;14.60;;;13.10;;
71648;SDS011;59492;45.638;11.714;2022-10-18T00:13:41;17.40;;;12.20;;
71648;SDS011;59492;45.638;11.714;2022-10-18T00:16:09;14.30;;;12.00;;
71648;SDS011;59492;45.638;11.714;2022-10-18T00:18:36;14.60;;;12.80;;
71648;SDS011;59492;45.638;11.714;2022-10-18T00:21:03;14.70;;;12.60;;
71648;SDS011;59492;45.638;11.714;2022-10-18T00:23:32;13.80;;;12.30;;
71648;SDS011;59492;45.638;11.714;2022-10-18T00:26:06;14.90;;;13.30;;
71648;SDS011;59492;45.638;11.714;2022-10-18T00:28:36;14.10;;;12.70;;
71648;SDS011;59492;45.638;11.714;2022-10-18T00:31:09;17.90;;;12.70;;
71648;SDS011;59492;45.638;11.714;2022-10-18T00:33:37;14.60;;;13.00;;
71648;SDS011;59492;45.638;11.714;2022-10-18T00:36:03;14.20;;;12.60;;
71648;SDS011;59492;45.638;11.714;2022-10-18T00:38:29;14.90;;;12.60;;
71648;SDS011;59492;45.638;11.714;2022-10-18T00:40:55;15.00;;;13.20;;
71648;SDS011;59492;45.638;11.714;2022-10-18T00:43:20;14.60;;;12.70;;
71648;SDS011;59492;45.638;11.714;2022-10-18T00:45:46;13.70;;;12.30;;
71648;SDS011;59492;45.638;11.714;2022-10-18T00:48:12;14.40;;;12.60;;
71648;SDS011;59492;45.638;11.714;2022-10-18T00:50:39;14.30;;;11.90;;
71648;SDS011;59492;45.638;11.714;2022-10-18T00:53:07;14.90;;;13.40;;
71648;SDS011;59492;45.638;11.714;2022-10-18T00:55:37;14.40;;;12.80;;
71648;SDS011;59492;45.638;11.714;2022-10-18T00:58:03;13.40;;;12.00;;
71648;SDS011;59492;45.638;11.714;2022-10-18T01:00:30;13.20;;;10.80;;
71648;SDS011;59492;45.638;11.714;2022-10-18T01:02:55;12.20;;;10.90;;
71648;SDS011;59492;45.638;11.714;2022-10-18T01:05:23;14.10;;;12.00;;
71648;SDS011;59492;45.638;11.714;2022-10-18T01:10:52;13.30;;;11.90;;
71648;SDS011;59492;45.638;11.714;2022-10-18T01:13:34;14.90;;;13.40;;
71648;SDS011;59492;45.638;11.714;2022-10-18T01:21:32;14.30;;;12.40;;
71648;SDS011;59492;45.638;11.714;2022-10-18T01:24:14;13.40;;;12.00;;
71648;SDS011;59492;45.638;11.714;2022-10-18T01:32:14;12.90;;;11.50;;
71648;SDS011;59492;45.638;11.714;2022-10-18T01:34:44;14.00;;;12.50;;
71648;SDS011;59492;45.638;11.714;2022-10-18T01:37:15;14.00;;;12.60;;
71648;SDS011;59492;45.638;11.714;2022-10-18T01:39:44;13.30;;;11.60;;
71648;SDS011;59492;45.638;11.714;2022-10-18T01:42:12;13.40;;;12.00;;
71648;SDS011;59492;45.638;11.714;2022-10-18T01:44:41;12.80;;;11.50;;
71648;SDS011;59492;45.638;11.714;2022-10-18T01:47:09;13.40;;;12.10;;
71648;SDS011;59492;45.638;11.714;2022-10-18T01:49:37;12.90;;;11.60;;
71648;SDS011;59492;45.638;11.714;2022-10-18T01:52:02;12.50;;;11.20;;
71648;SDS011;59492;45.638;11.714;2022-10-18T01:54:32;13.20;;;11.80;;
71648;SDS011;59492;45.638;11.714;2022-10-18T01:57:05;15.10;;;12.00;;
71648;SDS011;59492;45.638;11.714;2022-10-18T01:59:38;12.70;;;11.40;;
71648;SDS011;59492;45.638;11.714;2022-10-18T02:05:15;12.90;;;11.50;;
71648;SDS011;59492;45.638;11.714;2022-10-18T02:08:07;11.50;;;10.20;;
71648;SDS011;59492;45.638;11.714;2022-10-18T02:13:45;11.80;;;10.40;;
71648;SDS011;59492;45.638;11.714;2022-10-18T02:16:16;12.00;;;10.80;;
71648;SDS011;59492;45.638;11.714;2022-10-18T02:18:47;11.60;;;10.50;;
71648;SDS011;59492;45.638;11.714;2022-10-18T02:21:22;13.50;;;11.80;;
71648;SDS011;59492;45.638;11.714;2022-10-18T02:23:50;12.60;;;10.80;;
71648;SDS011;59492;45.638;11.714;2022-10-18T02:26:16;13.20;;;11.40;;
71648;SDS011;59492;45.638;11.714;2022-10-18T02:28:42;12.80;;;11.50;;
71648;SDS011;59492;45.638;11.714;2022-10-18T02:36:41;13.00;;;11.50;;
71648;SDS011;59492;45.638;11.714;2022-10-18T02:39:16;13.90;;;10.90;;
71648;SDS011;59492;45.638;11.714;2022-10-18T02:41:47;12.80;;;11.40;;
71648;SDS011;59492;45.638;11.714;2022-10-18T02:44:13;12.30;;;11.00;;
71648;SDS011;59492;45.638;11.714;2022-10-18T02:46:39;12.40;;;11.10;;
71648;SDS011;59492;45.638;11.714;2022-10-18T02:49:05;13.40;;;12.00;;
71648;SDS011;59492;45.638;11.714;2022-10-18T02:51:30;11.50;;;10.30;;
71648;SDS011;59492;45.638;11.714;2022-10-18T02:53:56;11.90;;;10.70;;
71648;SDS011;59492;45.638;11.714;2022-10-18T02:56:21;12.60;;;11.30;;
71648;SDS011;59492;45.638;11.714;2022-10-18T02:58:47;13.00;;;11.70;;
71648;SDS011;59492;45.638;11.714;2022-10-18T03:01:12;13.60;;;11.50;;
71648;SDS011;59492;45.638;11.714;2022-10-18T03:03:38;11.90;;;10.60;;
71648;SDS011;59492;45.638;11.714;2022-10-18T03:06:03;12.10;;;10.50;;
71648;SDS011;59492;45.638;11.714;2022-10-18T03:08:29;11.60;;;10.20;;
71648;SDS011;59492;45.638;11.714;2022-10-18T03:10:55;10.90;;;9.80;;
71648;SDS011;59492;45.638;11.714;2022-10-18T03:13:20;13.40;;;11.00;;
71648;SDS011;59492;45.638;11.714;2022-10-18T03:15:46;12.10;;;10.80;;
71648;SDS011;59492;45.638;11.714;2022-10-18T03:18:12;14.60;;;11.10;;
71648;SDS011;59492;45.638;11.714;2022-10-18T03:20:38;11.90;;;10.50;;
71648;SDS011;59492;45.638;11.714;2022-10-18T03:23:04;12.50;;;11.30;;
71648;SDS011;59492;45.638;11.714;2022-10-18T03:25:31;10.90;;;9.70;;
71648;SDS011;59492;45.638;11.714;2022-10-18T03:27:57;11.40;;;10.30;;
71648;SDS011;59492;45.638;11.714;2022-10-18T03:30:23;11.60;;;10.40;;
71648;SDS011;59492;45.638;11.714;2022-10-18T03:32:49;11.70;;;10.50;;
71648;SDS011;59492;45.638;11.714;2022-10-18T03:35:14;12.80;;;10.80;;
71648;SDS011;59492;45.638;11.714;2022-10-18T03:37:40;12.00;;;10.60;;
71648;SDS011;59492;45.638;11.714;2022-10-18T03:40:06;12.10;;;10.60;;
71648;SDS011;59492;45.638;11.714;2022-10-18T03:42:33;10.90;;;9.90;;
71648;SDS011;59492;45.638;11.714;2022-10-18T03:44:58;12.00;;;10.70;;
71648;SDS011;59492;45.638;11.714;2022-10-18T03:47:24;12.30;;;10.70;;
71648;SDS011;59492;45.638;11.714;2022-10-18T03:49:49;12.00;;;10.80;;
71648;SDS011;59492;45.638;11.714;2022-10-18T03:52:15;11.40;;;10.20;;
71648;SDS011;59492;45.638;11.714;2022-10-18T03:54:40;12.00;;;10.80;;
71648;SDS011;59492;45.638;11.714;2022-10-18T03:57:06;12.80;;;10.90;;
71648;SDS011;59492;45.638;11.714;2022-10-18T03:59:31;11.30;;;10.20;;
71648;SDS011;59492;45.638;11.714;2022-10-18T04:01:57;12.10;;;10.90;;
71648;SDS011;59492;45.638;11.714;2022-10-18T04:04:22;11.90;;;10.40;;
71648;SDS011;59492;45.638;11.714;2022-10-18T04:06:48;10.20;;;9.10;;
71648;SDS011;59492;45.638;11.714;2022-10-18T04:09:14;10.70;;;9.50;;
71648;SDS011;59492;45.638;11.714;2022-10-18T04:11:39;10.90;;;9.90;;
71648;SDS011;59492;45.638;11.714;2022-10-18T04:14:05;11.10;;;9.70;;
71648;SDS011;59492;45.638;11.714;2022-10-18T04:16:30;11.10;;;10.00;;
71648;SDS011;59492;45.638;11.714;2022-10-18T04:18:56;11.20;;;9.40;;
71648;SDS011;59492;45.638;11.714;2022-10-18T04:21:22;11.30;;;9.30;;
71648;SDS011;59492;45.638;11.714;2022-10-18T04:23:48;11.90;;;10.70;;
71648;SDS011;59492;45.638;11.714;2022-10-18T04:26:14;14.00;;;11.20;;
71648;SDS011;59492;45.638;11.714;2022-10-18T04:28:41;11.00;;;9.80;;
71648;SDS011;59492;45.638;11.714;2022-10-18T04:31:09;11.40;;;10.30;;
71648;SDS011;59492;45.638;11.714;2022-10-18T04:33:36;10.70;;;9.70;;
71648;SDS011;59492;45.638;11.714;2022-10-18T04:36:02;11.50;;;10.40;;
71648;SDS011;59492;45.638;11.714;2022-10-18T04:38:27;11.30;;;10.20;;
71648;SDS011;59492;45.638;11.714;2022-10-18T04:40:53;11.20;;;9.80;;
71648;SDS011;59492;45.638;11.714;2022-10-18T04:43:18;11.10;;;9.90;;
71648;SDS011;59492;45.638;11.714;2022-10-18T04:45:44;11.90;;;10.60;;
71648;SDS011;59492;45.638;11.714;2022-10-18T04:48:10;10.50;;;9.50;;
71648;SDS011;59492;45.638;11.714;2022-10-18T04:50:36;10.70;;;9.60;;
71648;SDS011;59492;45.638;11.714;2022-10-18T04:53:02;17.40;;;9.80;;
71648;SDS011;59492;45.638;11.714;2022-10-18T04:55:27;11.50;;;10.30;;
71648;SDS011;59492;45.638;11.714;2022-10-18T04:57:53;10.30;;;8.90;;
71648;SDS011;59492;45.638;11.714;2022-10-18T05:00:19;10.80;;;9.40;;
71648;SDS011;59492;45.638;11.714;2022-10-18T05:02:45;10.30;;;9.20;;
71648;SDS011;59492;45.638;11.714;2022-10-18T05:05:11;12.60;;;9.20;;
71648;SDS011;59492;45.638;11.714;2022-10-18T05:07:37;11.60;;;10.00;;
71648;SDS011;59492;45.638;11.714;2022-10-18T05:10:03;13.00;;;9.70;;
71648;SDS011;59492;45.638;11.714;2022-10-18T05:12:29;10.50;;;9.40;;
71648;SDS011;59492;45.638;11.714;2022-10-18T05:14:54;10.20;;;9.30;;
71648;SDS011;59492;45.638;11.714;2022-10-18T05:17:20;10.30;;;9.30;;
71648;SDS011;59492;45.638;11.714;2022-10-18T05:19:45;10.30;;;9.30;;
71648;SDS011;59492;45.638;11.714;2022-10-18T05:22:11;9.50;;;8.60;;
71648;SDS011;59492;45.638;11.714;2022-10-18T05:24:36;11.60;;;10.10;;
71648;SDS011;59492;45.638;11.714;2022-10-18T05:27:02;10.60;;;9.50;;
71648;SDS011;59492;45.638;11.714;2022-10-18T05:29:28;10.60;;;9.50;;
71648;SDS011;59492;45.638;11.714;2022-10-18T05:31:53;10.40;;;9.40;;
71648;SDS011;59492;45.638;11.714;2022-10-18T05:34:19;10.50;;;9.40;;
71648;SDS011;59492;45.638;11.714;2022-10-18T05:36:45;10.40;;;9.50;;
71648;SDS011;59492;45.638;11.714;2022-10-18T05:39:13;11.40;;;9.30;;
71648;SDS011;59492;45.638;11.714;2022-10-18T05:41:38;10.70;;;9.70;;
71648;SDS011;59492;45.638;11.714;2022-10-18T05:44:04;10.50;;;9.40;;
71648;SDS011;59492;45.638;11.714;2022-10-18T05:46:30;10.40;;;9.30;;
71648;SDS011;59492;45.638;11.714;2022-10-18T05:48:56;10.10;;;9.20;;
71648;SDS011;59492;45.638;11.714;2022-10-18T05:51:21;10.40;;;9.30;;
71648;SDS011;59492;45.638;11.714;2022-10-18T05:53:47;10.20;;;9.00;;
71648;SDS011;59492;45.638;11.714;2022-10-18T05:56:12;8.40;;;7.60;;
71648;SDS011;59492;45.638;11.714;2022-10-18T05:58:39;10.00;;;8.90;;
71648;SDS011;59492;45.638;11.714;2022-10-18T06:01:05;10.50;;;8.90;;
71648;SDS011;59492;45.638;11.714;2022-10-18T06:03:31;11.40;;;9.40;;
71648;SDS011;59492;45.638;11.714;2022-10-18T06:06:04;11.40;;;9.40;;
71648;SDS011;59492;45.638;11.714;2022-10-18T06:08:32;9.90;;;8.90;;
71648;SDS011;59492;45.638;11.714;2022-10-18T06:10:59;10.20;;;8.80;;
71648;SDS011;59492;45.638;11.714;2022-10-18T06:13:24;9.60;;;8.70;;
71648;SDS011;59492;45.638;11.714;2022-10-18T06:15:54;10.10;;;9.00;;
71648;SDS011;59492;45.638;11.714;2022-10-18T06:18:21;11.00;;;9.80;;
71648;SDS011;59492;45.638;11.714;2022-10-18T06:20:47;10.10;;;8.70;;
71648;SDS011;59492;45.638;11.714;2022-10-18T06:23:12;10.20;;;8.90;;
71648;SDS011;59492;45.638;11.714;2022-10-18T06:25:38;9.90;;;9.00;;
71648;SDS011;59492;45.638;11.714;2022-10-18T06:28:04;10.30;;;9.30;;
71648;SDS011;59492;45.638;11.714;2022-10-18T06:30:31;10.40;;;9.30;;
71648;SDS011;59492;45.638;11.714;2022-10-18T06:33:01;11.10;;;8.80;;
71648;SDS011;59492;45.638;11.714;2022-10-18T06:35:26;10.20;;;9.00;;
71648;SDS011;59492;45.638;11.714;2022-10-18T06:37:52;10.30;;;9.00;;
71648;SDS011;59492;45.638;11.714;2022-10-18T06:40:17;9.80;;;8.90;;
71648;SDS011;59492;45.638;11.714;2022-10-18T06:42:43;11.70;;;9.30;;
71648;SDS011;59492;45.638;11.714;2022-10-18T06:45:11;11.70;;;9.50;;
71648;SDS011;59492;45.638;11.714;2022-10-18T06:47:36;11.00;;;9.10;;
71648;SDS011;59492;45.638;11.714;2022-10-18T06:50:02;11.30;;;9.70;;
71648;SDS011;59492;45.638;11.714;2022-10-18T06:52:27;9.80;;;8.60;;
71648;SDS011;59492;45.638;11.714;2022-10-18T06:54:53;13.60;;;9.10;;
71648;SDS011;59492;45.638;11.714;2022-10-18T06:57:19;10.60;;;8.90;;
71648;SDS011;59492;45.638;11.714;2022-10-18T06:59:45;9.10;;;8.10;;
71648;SDS011;59492;45.638;11.714;2022-10-18T07:02:14;10.10;;;8.90;;
71648;SDS011;59492;45.638;11.714;2022-10-18T07:04:41;10.70;;;8.40;;
71648;SDS011;59492;45.638;11.714;2022-10-18T07:07:07;10.50;;;9.30;;
71648;SDS011;59492;45.638;11.714;2022-10-18T07:09:34;10.40;;;8.70;;
71648;SDS011;59492;45.638;11.714;2022-10-18T07:12:00;10.60;;;9.50;;
71648;SDS011;59492;45.638;11.714;2022-10-18T07:14:26;11.50;;;8.90;;
71648;SDS011;59492;45.638;11.714;2022-10-18T07:16:51;10.50;;;9.20;;
71648;SDS011;59492;45.638;11.714;2022-10-18T07:19:17;11.80;;;9.60;;
71648;SDS011;59492;45.638;11.714;2022-10-18T07:21:42;10.70;;;9.50;;
71648;SDS011;59492;45.638;11.714;2022-10-18T07:24:08;11.80;;;9.70;;
71648;SDS011;59492;45.638;11.714;2022-10-18T07:26:33;10.10;;;9.00;;
71648;SDS011;59492;45.638;11.714;2022-10-18T07:29:07;14.40;;;9.40;;
71648;SDS011;59492;45.638;11.714;2022-10-18T07:31:34;11.40;;;9.40;;
71648;SDS011;59492;45.638;11.714;2022-10-18T07:34:03;11.20;;;9.60;;
71648;SDS011;59492;45.638;11.714;2022-10-18T07:36:29;11.90;;;9.60;;
71648;SDS011;59492;45.638;11.714;2022-10-18T07:38:55;10.40;;;9.40;;
71648;SDS011;59492;45.638;11.714;2022-10-18T07:41:21;9.70;;;8.50;;
71648;SDS011;59492;45.638;11.714;2022-10-18T07:43:47;10.00;;;9.00;;
71648;SDS011;59492;45.638;11.714;2022-10-18T07:46:15;12.50;;;9.20;;
71648;SDS011;59492;45.638;11.714;2022-10-18T07:48:42;10.50;;;8.90;;
71648;SDS011;59492;45.638;11.714;2022-10-18T07:51:08;10.20;;;9.20;;
71648;SDS011;59492;45.638;11.714;2022-10-18T07:53:34;10.00;;;8.80;;
71648;SDS011;59492;45.638;11.714;2022-10-18T07:56:00;11.10;;;8.60;;
71648;SDS011;59492;45.638;11.714;2022-10-18T07:58:29;12.00;;;8.90;;
71648;SDS011;59492;45.638;11.714;2022-10-18T08:00:56;9.80;;;8.80;;
71648;SDS011;59492;45.638;11.714;2022-10-18T08:03:21;11.50;;;9.40;;
71648;SDS011;59492;45.638;11.714;2022-10-18T08:05:51;10.30;;;9.20;;
71648;SDS011;59492;45.638;11.714;2022-10-18T08:08:18;11.00;;;8.50;;
71648;SDS011;59492;45.638;11.714;2022-10-18T08:10:44;9.50;;;8.40;;
71648;SDS011;59492;45.638;11.714;2022-10-18T08:13:10;9.60;;;8.60;;
71648;SDS011;59492;45.638;11.714;2022-10-18T08:15:36;9.70;;;8.70;;
71648;SDS011;59492;45.638;11.714;2022-10-18T08:18:01;10.30;;;8.90;;
71648;SDS011;59492;45.638;11.714;2022-10-18T08:20:27;11.00;;;9.60;;
71648;SDS011;59492;45.638;11.714;2022-10-18T08:22:52;11.80;;;9.90;;
71648;SDS011;59492;45.638;11.714;2022-10-18T08:25:18;11.50;;;9.50;;
71648;SDS011;59492;45.638;11.714;2022-10-18T08:27:43;10.60;;;9.30;;
71648;SDS011;59492;45.638;11.714;2022-10-18T08:30:09;11.50;;;9.20;;
71648;SDS011;59492;45.638;11.714;2022-10-18T08:32:35;10.40;;;8.60;;
71648;SDS011;59492;45.638;11.714;2022-10-18T08:35:00;10.60;;;8.60;;
71648;SDS011;59492;45.638;11.714;2022-10-18T08:37:26;10.50;;;9.40;;
71648;SDS011;59492;45.638;11.714;2022-10-18T08:39:51;10.90;;;9.00;;
71648;SDS011;59492;45.638;11.714;2022-10-18T08:45:02;10.60;;;8.90;;
71648;SDS011;59492;45.638;11.714;2022-10-18T08:47:39;9.60;;;8.70;;
71648;SDS011;59492;45.638;11.714;2022-10-18T08:50:29;10.50;;;9.40;;
71648;SDS011;59492;45.638;11.714;2022-10-18T08:55:42;11.20;;;9.30;;
71648;SDS011;59492;45.638;11.714;2022-10-18T09:01:09;10.60;;;9.10;;
71648;SDS011;59492;45.638;11.714;2022-10-18T09:04:02;11.80;;;9.80;;
71648;SDS011;59492;45.638;11.714;2022-10-18T09:11:49;12.60;;;10.00;;
71648;SDS011;59492;45.638;11.714;2022-10-18T09:14:23;11.60;;;9.80;;
71648;SDS011;59492;45.638;11.714;2022-10-18T09:22:42;13.10;;;10.10;;
71648;SDS011;59492;45.638;11.714;2022-10-18T09:25:23;12.10;;;9.90;;
71648;SDS011;59492;45.638;11.714;2022-10-18T09:35:32;14.20;;;10.60;;
71648;SDS011;59492;45.638;11.714;2022-10-18T09:38:09;11.20;;;10.00;;
71648;SDS011;59492;45.638;11.714;2022-10-18T09:40:42;12.30;;;9.90;;
71648;SDS011;59492;45.638;11.714;2022-10-18T09:43:16;12.80;;;10.80;;
71648;SDS011;59492;45.638;11.714;2022-10-18T09:45:47;12.60;;;10.70;;
71648;SDS011;59492;45.638;11.714;2022-10-18T09:50:50;12.70;;;10.60;;
71648;SDS011;59492;45.638;11.714;2022-10-18T09:53:35;16.60;;;11.00;;
71648;SDS011;59492;45.638;11.714;2022-10-18T09:56:18;18.30;;;12.20;;
71648;SDS011;59492;45.638;11.714;2022-10-18T09:58:49;15.60;;;13.00;;
71648;SDS011;59492;45.638;11.714;2022-10-18T10:01:18;15.10;;;11.10;;
71648;SDS011;59492;45.638;11.714;2022-10-18T10:03:46;15.20;;;11.60;;
71648;SDS011;59492;45.638;11.714;2022-10-18T10:08:41;14.00;;;11.40;;
71648;SDS011;59492;45.638;11.714;2022-10-18T10:11:28;16.40;;;12.20;;
71648;SDS011;59492;45.638;11.714;2022-10-18T10:14:03;13.70;;;11.00;;
71648;SDS011;59492;45.638;11.714;2022-10-18T10:17:00;13.30;;;11.50;;
71648;SDS011;59492;45.638;11.714;2022-10-18T10:22:23;15.30;;;11.80;;
71648;SDS011;59492;45.638;11.714;2022-10-18T10:24:52;15.90;;;12.20;;
71648;SDS011;59492;45.638;11.714;2022-10-18T10:27:31;15.50;;;12.00;;
71648;SDS011;59492;45.638;11.714;2022-10-18T10:32:47;13.90;;;12.40;;
71648;SDS011;59492;45.638;11.714;2022-10-18T10:37:54;16.60;;;12.90;;
71648;SDS011;59492;45.638;11.714;2022-10-18T10:40:21;15.60;;;12.20;;
71648;SDS011;59492;45.638;11.714;2022-10-18T10:43:06;16.70;;;11.70;;
71648;SDS011;59492;45.638;11.714;2022-10-18T10:45:56;15.30;;;12.50;;
71648;SDS011;59492;45.638;11.714;2022-10-18T10:48:28;15.70;;;12.70;;
71648;SDS011;59492;45.638;11.714;2022-10-18T10:53:47;17.10;;;12.60;;
71648;SDS011;59492;45.638;11.714;2022-10-18T10:56:28;15.10;;;12.20;;
71648;SDS011;59492;45.638;11.714;2022-10-18T10:59:08;17.50;;;12.70;;
71648;SDS011;59492;45.638;11.714;2022-10-18T11:01:38;16.30;;;13.30;;
71648;SDS011;59492;45.638;11.714;2022-10-18T11:12:33;16.70;;;12.80;;
71648;SDS011;59492;45.638;11.714;2022-10-18T11:20:39;19.70;;;14.60;;
71648;SDS011;59492;45.638;11.714;2022-10-18T11:28:10;26.60;;;18.90;;
71648;SDS011;59492;45.638;11.714;2022-10-18T11:30:48;24.50;;;18.80;;
71648;SDS011;59492;45.638;11.714;2022-10-18T11:33:26;24.40;;;19.00;;
71648;SDS011;59492;45.638;11.714;2022-10-18T11:38:39;23.00;;;18.20;;
71648;SDS011;59492;45.638;11.714;2022-10-18T11:41:17;22.70;;;16.20;;
71648;SDS011;59492;45.638;11.714;2022-10-18T11:44:10;23.30;;;17.40;;
71648;SDS011;59492;45.638;11.714;2022-10-18T11:47:02;25.90;;;17.00;;
71648;SDS011;59492;45.638;11.714;2022-10-18T12:00:30;24.80;;;15.60;;
71648;SDS011;59492;45.638;11.714;2022-10-18T12:05:47;21.80;;;17.90;;
71648;SDS011;59492;45.638;11.714;2022-10-18T12:11:15;19.90;;;16.70;;
71648;SDS011;59492;45.638;11.714;2022-10-18T12:14:09;25.90;;;17.00;;
71648;SDS011;59492;45.638;11.714;2022-10-18T12:16:49;20.10;;;16.10;;
71648;SDS011;59492;45.638;11.714;2022-10-18T12:19:21;21.70;;;16.10;;
71648;SDS011;59492;45.638;11.714;2022-10-18T12:21:50;20.60;;;15.80;;
71648;SDS011;59492;45.638;11.714;2022-10-18T12:24:19;20.80;;;17.00;;
71648;SDS011;59492;45.638;11.714;2022-10-18T12:26:48;22.90;;;17.60;;
71648;SDS011;59492;45.638;11.714;2022-10-18T12:29:38;20.70;;;16.70;;
71648;SDS011;59492;45.638;11.714;2022-10-18T12:32:12;18.70;;;16.20;;
71648;SDS011;59492;45.638;11.714;2022-10-18T12:34:42;21.40;;;15.70;;
71648;SDS011;59492;45.638;11.714;2022-10-18T12:37:24;20.90;;;16.00;;
71648;SDS011;59492;45.638;11.714;2022-10-18T12:40:02;20.10;;;16.80;;
71648;SDS011;59492;45.638;11.714;2022-10-18T12:42:33;22.60;;;16.00;;
71648;SDS011;59492;45.638;11.714;2022-10-18T12:48:04;22.40;;;15.90;;
71648;SDS011;59492;45.638;11.714;2022-10-18T12:55:35;21.80;;;17.90;;
71648;SDS011;59492;45.638;11.714;2022-10-18T12:58:24;21.70;;;17.90;;
71648;SDS011;59492;45.638;11.714;2022-10-18T13:00:54;25.20;;;18.40;;
71648;SDS011;59492;45.638;11.714;2022-10-18T13:16:30;24.10;;;19.20;;
71648;SDS011;59492;45.638;11.714;2022-10-18T13:19:00;29.20;;;19.70;;
71648;SDS011;59492;45.638;11.714;2022-10-18T13:21:51;27.00;;;20.30;;
71648;SDS011;59492;45.638;11.714;2022-10-18T13:24:22;24.80;;;18.50;;
71648;SDS011;59492;45.638;11.714;2022-10-18T13:27:09;24.70;;;19.20;;
71648;SDS011;59492;45.638;11.714;2022-10-18T13:38:02;24.30;;;18.60;;
71648;SDS011;59492;45.638;11.714;2022-10-18T13:40:29;27.20;;;21.10;;
71648;SDS011;59492;45.638;11.714;2022-10-18T13:42:56;26.30;;;19.80;;
71648;SDS011;59492;45.638;11.714;2022-10-18T13:48:41;26.80;;;19.50;;
71648;SDS011;59492;45.638;11.714;2022-10-18T13:50:55;28.60;;;20.60;;
71648;SDS011;59492;45.638;11.714;2022-10-18T13:53:34;28.10;;;20.10;;
71648;SDS011;59492;45.638;11.714;2022-10-18T13:58:42;30.20;;;21.40;;
71648;SDS011;59492;45.638;11.714;2022-10-18T14:03:48;28.50;;;21.30;;
71648;SDS011;59492;45.638;11.714;2022-10-18T14:06:39;26.30;;;20.70;;
71648;SDS011;59492;45.638;11.714;2022-10-18T14:17:38;28.00;;;18.20;;
71648;SDS011;59492;45.638;11.714;2022-10-18T14:20:16;22.60;;;19.00;;
71648;SDS011;59492;45.638;11.714;2022-10-18T14:25:28;26.10;;;19.10;;
71648;SDS011;59492;45.638;11.714;2022-10-18T14:30:34;22.30;;;18.70;;
71648;SDS011;59492;45.638;11.714;2022-10-18T14:33:00;25.10;;;19.40;;
71648;SDS011;59492;45.638;11.714;2022-10-18T14:35:32;20.10;;;17.70;;
71648;SDS011;59492;45.638;11.714;2022-10-18T14:38:00;22.90;;;17.30;;
71648;SDS011;59492;45.638;11.714;2022-10-18T14:40:27;22.70;;;18.20;;
71648;SDS011;59492;45.638;11.714;2022-10-18T14:42:53;22.40;;;17.50;;
71648;SDS011;59492;45.638;11.714;2022-10-18T14:45:18;20.70;;;17.00;;
71648;SDS011;59492;45.638;11.714;2022-10-18T14:47:45;21.10;;;17.70;;
71648;SDS011;59492;45.638;11.714;2022-10-18T14:50:29;21.80;;;17.50;;
71648;SDS011;59492;45.638;11.714;2022-10-18T14:52:55;19.20;;;16.10;;
71648;SDS011;59492;45.638;11.714;2022-10-18T14:55:22;21.00;;;16.60;;
71648;SDS011;59492;45.638;11.714;2022-10-18T14:57:50;19.90;;;16.80;;
71648;SDS011;59492;45.638;11.714;2022-10-18T15:00:26;20.30;;;17.00;;
71648;SDS011;59492;45.638;11.714;2022-10-18T15:02:59;18.70;;;16.30;;
71648;SDS011;59492;45.638;11.714;2022-10-18T15:05:26;18.60;;;15.50;;
71648;SDS011;59492;45.638;11.714;2022-10-18T15:07:51;20.50;;;15.70;;
71648;SDS011;59492;45.638;11.714;2022-10-18T15:10:19;16.30;;;14.60;;
71648;SDS011;59492;45.638;11.714;2022-10-18T15:12:50;18.90;;;15.60;;
71648;SDS011;59492;45.638;11.714;2022-10-18T15:15:20;21.20;;;15.60;;
71648;SDS011;59492;45.638;11.714;2022-10-18T15:17:50;19.50;;;15.00;;
71648;SDS011;59492;45.638;11.714;2022-10-18T15:20:27;17.70;;;15.30;;
71648;SDS011;59492;45.638;11.714;2022-10-18T15:25:46;17.80;;;14.90;;
71648;SDS011;59492;45.638;11.714;2022-10-18T15:28:23;18.70;;;15.20;;
71648;SDS011;59492;45.638;11.714;2022-10-18T15:30:54;17.50;;;15.00;;
71648;SDS011;59492;45.638;11.714;2022-10-18T15:33:23;18.30;;;15.00;;
71648;SDS011;59492;45.638;11.714;2022-10-18T15:35:52;23.60;;;14.50;;
71648;SDS011;59492;45.638;11.714;2022-10-18T15:38:28;16.90;;;14.10;;
71648;SDS011;59492;45.638;11.714;2022-10-18T15:40:56;17.50;;;14.50;;
71648;SDS011;59492;45.638;11.714;2022-10-18T15:45:51;18.30;;;14.80;;
71648;SDS011;59492;45.638;11.714;2022-10-18T15:51:02;16.50;;;14.50;;
71648;SDS011;59492;45.638;11.714;2022-10-18T15:53:31;16.50;;;14.20;;
71648;SDS011;59492;45.638;11.714;2022-10-18T15:56:03;17.00;;;13.90;;
71648;SDS011;59492;45.638;11.714;2022-10-18T16:01:07;17.40;;;14.70;;
71648;SDS011;59492;45.638;11.714;2022-10-18T16:03:42;16.30;;;14.60;;
71648;SDS011;59492;45.638;11.714;2022-10-18T16:06:10;17.40;;;14.50;;
71648;SDS011;59492;45.638;11.714;2022-10-18T16:08:37;16.50;;;14.60;;
71648;SDS011;59492;45.638;11.714;2022-10-18T16:11:06;16.40;;;14.50;;
71648;SDS011;59492;45.638;11.714;2022-10-18T16:13:53;18.10;;;14.30;;
71648;SDS011;59492;45.638;11.714;2022-10-18T16:16:20;20.00;;;14.30;;
71648;SDS011;59492;45.638;11.714;2022-10-18T16:18:48;16.70;;;14.30;;
71648;SDS011;59492;45.638;11.714;2022-10-18T16:23:49;17.00;;;15.10;;
71648;SDS011;59492;45.638;11.714;2022-10-18T16:26:15;17.10;;;13.80;;
71648;SDS011;59492;45.638;11.714;2022-10-18T16:28:41;17.10;;;14.60;;
71648;SDS011;59492;45.638;11.714;2022-10-18T16:31:09;16.90;;;14.30;;
71648;SDS011;59492;45.638;11.714;2022-10-18T16:33:39;16.00;;;14.30;;
71648;SDS011;59492;45.638;11.714;2022-10-18T16:36:05;22.70;;;15.80;;
71648;SDS011;59492;45.638;11.714;2022-10-18T16:38:34;20.10;;;15.10;;
71648;SDS011;59492;45.638;11.714;2022-10-18T16:41:01;16.60;;;14.50;;
71648;SDS011;59492;45.638;11.714;2022-10-18T16:43:29;16.60;;;14.00;;
71648;SDS011;59492;45.638;11.714;2022-10-18T16:45:55;17.80;;;14.50;;
71648;SDS011;59492;45.638;11.714;2022-10-18T16:48:21;16.60;;;14.60;;
71648;SDS011;59492;45.638;11.714;2022-10-18T16:50:49;17.60;;;15.20;;
71648;SDS011;59492;45.638;11.714;2022-10-18T16:53:15;19.90;;;14.70;;
71648;SDS011;59492;45.638;11.714;2022-10-18T16:55:42;22.50;;;15.50;;
71648;SDS011;59492;45.638;11.714;2022-10-18T16:58:17;18.70;;;14.60;;
71648;SDS011;59492;45.638;11.714;2022-10-18T17:00:45;20.00;;;14.80;;
71648;SDS011;59492;45.638;11.714;2022-10-18T17:03:11;23.40;;;14.60;;
71648;SDS011;59492;45.638;11.714;2022-10-18T17:05:41;15.80;;;12.20;;
71648;SDS011;59492;45.638;11.714;2022-10-18T17:08:24;21.60;;;13.40;;
71648;SDS011;59492;45.638;11.714;2022-10-18T17:10:52;16.60;;;13.70;;
71648;SDS011;59492;45.638;11.714;2022-10-18T17:13:20;21.90;;;15.00;;
71648;SDS011;59492;45.638;11.714;2022-10-18T17:15:47;19.50;;;14.90;;
71648;SDS011;59492;45.638;11.714;2022-10-18T17:18:14;21.20;;;14.70;;